Armstrong, IL (61812)

6:31 PM CDT on September 29, 2016 (GMT -0500)
Hope | | Change Station

Elev 692 ft 40.20 °N, 87.91 °W | Updated 10 seconds ago

Rain
Rain
61.7 °F
Feels Like 61.7 °F
N
7.2
Wind Variable Wind from NE
Gusts 9.8 mph

Today
High -- | Low -- °F
--% Chance of Precip.
Yesterday
High -- | Low -- °F
Precip. -- in
Pressure 30.14 in
Visibility 10.0 miles
Clouds Scattered Clouds 2700 ft
Mostly Cloudy 3500 ft
Overcast 5500 ft
Dew Point 61 °F
Humidity 96%
Rainfall 0.00 in
Snow Depth Not available.
6:46 AM 6:36 PM
Waning Crescent, 1% visible
METAR KTIP 292315Z AUTO 02015G21KT 10SM RA SCT027 BKN035 OVC055 19/15 A3014 RMK AO2 T01850152
Pressure 30.14 in
Visibility 10.0 miles
Clouds Scattered Clouds 2700 ft
Mostly Cloudy 3500 ft
Overcast 5500 ft
Dew Point 61 °F
Humidity 96%
Rainfall 0.00 in
Snow Depth Not available.
6:46 AM 6:36 PM
Waning Crescent, 1% visible
METAR KTIP 292315Z AUTO 02015G21KT 10SM RA SCT027 BKN035 OVC055 19/15 A3014 RMK AO2 T01850152

10-Day Weather Forecast

Almanac

Astronomy

Sep. 29, 2016 Rise Set
Actual Time
Civil Twilight
Nautical Twilight
Astronomical Twilight
Moon
Length of Visible Light
Length of Day
Tomorrow will be .
, % of the Moon is Illuminated

Today's Extremes

State Highs State Lows

Community

WunderPhotos

Upload Photos

1,942,602 photos uploaded!

WunderBlog® & News

Nearby

Air Quality

  Air Quality AQ Index Pollutant
Not available.

Snow Depth

Station Depth Elevation

Earthquake Activity

City Distance Mag. Time & Date
Minimum magnitude displayed is 2.5.

Coastal Water Temperatures

Place Temperature

Stations

Nearby Weather Stations

Station Location Temp. Windchill Dew Point Humidity Wind Precip. Elev Updated Type
                   

Watches & Warnings

There are currently no watches in effect.